ENSE

Snorre A Oilp

Snorre A Oilp, Norway
METAR ENSE 151850Z AUTO 20036KT 9999NDV BKN130/// BKN150/// 08/05 Q1006 W///S5
Observed Flight Rules
Feb-15 @ 18:50 UTC (22 minutes ago)
Wind Clouds
200° at 36 knots
  • Broken at 13,000' AGL
  • Broken at 15,000' AGL
Temperatures Readings
Current 8°C / 46°F
Dewpoint 5°C / 41°F
Humidity 82%
Altimeter 29.7" Hg
Pressure 1005.92 hPa
Elevation 10
METAR ENSE 151850Z AUTO 20036KT 9999NDV BKN130/// BKN150/// 08/05 Q1006 W///S5
Observed Flight Rules
Feb-15 @ 18:50 UTC
(22 minutes ago)
Wind
200° at 36 knots
Clouds
  • Broken at 13,000' AGL
  • Broken at 15,000' AGL
Temperature Dewpoint
8°C / 46°F 5°C / 41°F
Humidity Altimeter Pressure
82% 29.7" Hg 1005.92 hPa